sensor_id;sensor_type;location;lat;lon;timestamp;P1;durP1;ratioP1;P2;durP2;ratioP2
24277;SDS011;12394;42.692;23.314;2024-03-23T00:55:54;28.00;;;14.43;;
24277;SDS011;12394;42.692;23.314;2024-03-23T00:58:19;28.97;;;13.53;;
24277;SDS011;12394;42.692;23.314;2024-03-23T01:00:44;34.27;;;15.53;;
24277;SDS011;12394;42.692;23.314;2024-03-23T01:03:10;35.90;;;16.20;;
24277;SDS011;12394;42.692;23.314;2024-03-23T01:05:35;29.27;;;15.63;;
24277;SDS011;12394;42.692;23.314;2024-03-23T01:08:01;38.83;;;16.03;;
24277;SDS011;12394;42.692;23.314;2024-03-23T01:10:27;27.23;;;14.27;;
24277;SDS011;12394;42.692;23.314;2024-03-23T01:12:52;27.80;;;14.67;;
24277;SDS011;12394;42.692;23.314;2024-03-23T01:15:18;28.90;;;16.00;;
24277;SDS011;12394;42.692;23.314;2024-03-23T01:17:43;26.27;;;15.30;;
24277;SDS011;12394;42.692;23.314;2024-03-23T01:20:09;28.60;;;15.00;;
24277;SDS011;12394;42.692;23.314;2024-03-23T01:22:35;29.93;;;14.77;;
24277;SDS011;12394;42.692;23.314;2024-03-23T01:25:01;26.73;;;15.47;;
24277;SDS011;12394;42.692;23.314;2024-03-23T01:27:26;24.37;;;14.80;;
24277;SDS011;12394;42.692;23.314;2024-03-23T01:29:51;29.33;;;14.93;;
24277;SDS011;12394;42.692;23.314;2024-03-23T01:32:20;27.90;;;14.53;;
24277;SDS011;12394;42.692;23.314;2024-03-23T01:34:46;29.20;;;14.80;;
24277;SDS011;12394;42.692;23.314;2024-03-23T01:37:12;29.13;;;15.17;;
24277;SDS011;12394;42.692;23.314;2024-03-23T01:39:37;26.93;;;15.33;;
24277;SDS011;12394;42.692;23.314;2024-03-23T01:42:03;23.37;;;14.50;;
24277;SDS011;12394;42.692;23.314;2024-03-23T01:44:28;22.83;;;12.77;;
24277;SDS011;12394;42.692;23.314;2024-03-23T01:46:54;29.03;;;14.37;;
24277;SDS011;12394;42.692;23.314;2024-03-23T01:49:20;21.87;;;12.97;;
24277;SDS011;12394;42.692;23.314;2024-03-23T01:51:46;23.70;;;12.93;;
24277;SDS011;12394;42.692;23.314;2024-03-23T01:54:11;24.73;;;13.57;;
24277;SDS011;12394;42.692;23.314;2024-03-23T01:56:37;23.00;;;12.67;;
24277;SDS011;12394;42.692;23.314;2024-03-23T01:59:03;19.40;;;12.67;;
24277;SDS011;12394;42.692;23.314;2024-03-23T02:01:30;19.90;;;11.90;;
24277;SDS011;12394;42.692;23.314;2024-03-23T02:03:56;22.77;;;11.97;;
24277;SDS011;12394;42.692;23.314;2024-03-23T02:06:22;19.63;;;12.07;;
24277;SDS011;12394;42.692;23.314;2024-03-23T02:08:49;20.77;;;12.23;;
24277;SDS011;12394;42.692;23.314;2024-03-23T02:11:14;20.87;;;13.30;;
24277;SDS011;12394;42.692;23.314;2024-03-23T02:13:40;22.73;;;12.53;;
24277;SDS011;12394;42.692;23.314;2024-03-23T02:16:05;21.17;;;11.97;;
24277;SDS011;12394;42.692;23.314;2024-03-23T02:18:32;19.73;;;10.77;;
24277;SDS011;12394;42.692;23.314;2024-03-23T02:20:57;20.67;;;11.30;;
24277;SDS011;12394;42.692;23.314;2024-03-23T02:23:23;20.50;;;10.33;;
24277;SDS011;12394;42.692;23.314;2024-03-23T02:25:49;19.20;;;11.77;;
24277;SDS011;12394;42.692;23.314;2024-03-23T02:28:15;18.87;;;11.20;;
24277;SDS011;12394;42.692;23.314;2024-03-23T02:30:42;17.57;;;10.33;;
24277;SDS011;12394;42.692;23.314;2024-03-23T02:33:07;20.87;;;11.83;;
24277;SDS011;12394;42.692;23.314;2024-03-23T02:35:33;20.47;;;10.27;;
24277;SDS011;12394;42.692;23.314;2024-03-23T02:37:59;16.73;;;10.57;;
24277;SDS011;12394;42.692;23.314;2024-03-23T02:40:25;19.63;;;11.00;;
24277;SDS011;12394;42.692;23.314;2024-03-23T02:42:51;19.77;;;11.13;;
24277;SDS011;12394;42.692;23.314;2024-03-23T02:45:17;21.63;;;11.17;;
24277;SDS011;12394;42.692;23.314;2024-03-23T02:47:42;20.43;;;10.63;;
24277;SDS011;12394;42.692;23.314;2024-03-23T02:50:08;18.23;;;10.53;;
24277;SDS011;12394;42.692;23.314;2024-03-23T02:52:34;19.57;;;11.10;;
24277;SDS011;12394;42.692;23.314;2024-03-23T02:55:00;17.70;;;10.90;;
24277;SDS011;12394;42.692;23.314;2024-03-23T02:57:27;18.13;;;11.13;;
24277;SDS011;12394;42.692;23.314;2024-03-23T02:59:53;20.17;;;11.33;;
24277;SDS011;12394;42.692;23.314;2024-03-23T03:02:19;15.80;;;10.60;;
24277;SDS011;12394;42.692;23.314;2024-03-23T03:04:45;16.40;;;10.33;;
24277;SDS011;12394;42.692;23.314;2024-03-23T03:07:11;16.10;;;10.90;;
24277;SDS011;12394;42.692;23.314;2024-03-23T03:09:37;19.67;;;11.33;;
24277;SDS011;12394;42.692;23.314;2024-03-23T03:12:04;19.13;;;11.23;;
24277;SDS011;12394;42.692;23.314;2024-03-23T03:14:30;19.57;;;10.90;;
24277;SDS011;12394;42.692;23.314;2024-03-23T03:16:56;20.03;;;10.40;;
24277;SDS011;12394;42.692;23.314;2024-03-23T03:19:21;16.40;;;10.60;;
24277;SDS011;12394;42.692;23.314;2024-03-23T03:21:47;16.60;;;10.27;;
24277;SDS011;12394;42.692;23.314;2024-03-23T03:24:15;19.60;;;10.87;;
24277;SDS011;12394;42.692;23.314;2024-03-23T03:26:41;16.20;;;10.03;;
24277;SDS011;12394;42.692;23.314;2024-03-23T03:29:07;14.20;;;9.67;;
24277;SDS011;12394;42.692;23.314;2024-03-23T03:31:33;15.63;;;10.07;;
24277;SDS011;12394;42.692;23.314;2024-03-23T03:33:58;14.43;;;9.30;;
24277;SDS011;12394;42.692;23.314;2024-03-23T03:36:24;13.50;;;8.87;;
24277;SDS011;12394;42.692;23.314;2024-03-23T03:38:49;17.33;;;10.20;;
24277;SDS011;12394;42.692;23.314;2024-03-23T03:41:15;16.93;;;8.83;;
24277;SDS011;12394;42.692;23.314;2024-03-23T03:43:41;15.43;;;8.50;;
24277;SDS011;12394;42.692;23.314;2024-03-23T03:46:06;17.13;;;8.73;;
24277;SDS011;12394;42.692;23.314;2024-03-23T03:48:33;15.40;;;9.27;;
24277;SDS011;12394;42.692;23.314;2024-03-23T03:50:59;12.77;;;8.63;;
24277;SDS011;12394;42.692;23.314;2024-03-23T03:53:25;13.37;;;9.23;;
24277;SDS011;12394;42.692;23.314;2024-03-23T03:55:51;17.77;;;9.13;;
24277;SDS011;12394;42.692;23.314;2024-03-23T03:58:16;14.80;;;9.80;;
24277;SDS011;12394;42.692;23.314;2024-03-23T04:00:42;14.67;;;8.83;;
24277;SDS011;12394;42.692;23.314;2024-03-23T04:03:07;17.00;;;9.13;;
24277;SDS011;12394;42.692;23.314;2024-03-23T04:05:33;14.57;;;9.13;;
24277;SDS011;12394;42.692;23.314;2024-03-23T04:07:58;15.80;;;9.53;;
24277;SDS011;12394;42.692;23.314;2024-03-23T04:10:24;14.30;;;9.60;;
24277;SDS011;12394;42.692;23.314;2024-03-23T04:12:49;20.77;;;10.07;;
24277;SDS011;12394;42.692;23.314;2024-03-23T04:15:15;14.40;;;8.83;;
24277;SDS011;12394;42.692;23.314;2024-03-23T04:17:41;14.70;;;8.63;;
24277;SDS011;12394;42.692;23.314;2024-03-23T04:20:08;13.03;;;8.67;;
24277;SDS011;12394;42.692;23.314;2024-03-23T04:22:36;14.63;;;9.17;;
24277;SDS011;12394;42.692;23.314;2024-03-23T04:25:02;15.17;;;8.80;;
24277;SDS011;12394;42.692;23.314;2024-03-23T04:27:37;14.90;;;9.07;;
24277;SDS011;12394;42.692;23.314;2024-03-23T04:30:03;17.43;;;9.23;;
24277;SDS011;12394;42.692;23.314;2024-03-23T04:32:34;15.80;;;9.20;;
24277;SDS011;12394;42.692;23.314;2024-03-23T04:35:00;16.13;;;9.57;;
24277;SDS011;12394;42.692;23.314;2024-03-23T04:37:25;16.43;;;8.80;;
24277;SDS011;12394;42.692;23.314;2024-03-23T04:39:51;14.90;;;9.37;;
24277;SDS011;12394;42.692;23.314;2024-03-23T04:42:16;16.63;;;9.97;;
24277;SDS011;12394;42.692;23.314;2024-03-23T04:44:42;18.93;;;9.40;;
24277;SDS011;12394;42.692;23.314;2024-03-23T04:47:07;17.47;;;9.63;;
24277;SDS011;12394;42.692;23.314;2024-03-23T04:49:33;16.60;;;9.20;;
24277;SDS011;12394;42.692;23.314;2024-03-23T04:52:01;14.03;;;8.87;;
24277;SDS011;12394;42.692;23.314;2024-03-23T04:54:28;14.50;;;9.07;;
24277;SDS011;12394;42.692;23.314;2024-03-23T04:56:53;13.40;;;8.93;;
24277;SDS011;12394;42.692;23.314;2024-03-23T04:59:19;17.27;;;9.30;;
24277;SDS011;12394;42.692;23.314;2024-03-23T05:01:45;16.63;;;8.93;;
24277;SDS011;12394;42.692;23.314;2024-03-23T05:04:10;16.70;;;9.07;;
24277;SDS011;12394;42.692;23.314;2024-03-23T05:06:36;17.30;;;8.80;;
24277;SDS011;12394;42.692;23.314;2024-03-23T05:09:01;15.43;;;9.10;;
24277;SDS011;12394;42.692;23.314;2024-03-23T05:11:36;13.23;;;9.23;;
24277;SDS011;12394;42.692;23.314;2024-03-23T05:14:04;12.53;;;8.60;;
24277;SDS011;12394;42.692;23.314;2024-03-23T05:16:30;14.83;;;8.87;;
24277;SDS011;12394;42.692;23.314;2024-03-23T05:18:56;14.90;;;8.77;;
24277;SDS011;12394;42.692;23.314;2024-03-23T05:21:21;12.03;;;8.03;;
24277;SDS011;12394;42.692;23.314;2024-03-23T05:23:47;20.23;;;9.47;;
24277;SDS011;12394;42.692;23.314;2024-03-23T05:26:12;14.70;;;9.40;;
24277;SDS011;12394;42.692;23.314;2024-03-23T05:28:38;14.00;;;8.30;;
24277;SDS011;12394;42.692;23.314;2024-03-23T05:31:04;14.60;;;9.40;;
24277;SDS011;12394;42.692;23.314;2024-03-23T05:33:30;13.33;;;9.07;;
24277;SDS011;12394;42.692;23.314;2024-03-23T05:35:56;18.20;;;9.73;;
24277;SDS011;12394;42.692;23.314;2024-03-23T05:38:22;13.83;;;9.23;;
24277;SDS011;12394;42.692;23.314;2024-03-23T05:40:57;16.30;;;9.53;;
24277;SDS011;12394;42.692;23.314;2024-03-23T05:43:24;19.90;;;10.43;;
24277;SDS011;12394;42.692;23.314;2024-03-23T05:45:55;13.80;;;9.63;;
24277;SDS011;12394;42.692;23.314;2024-03-23T05:48:21;24.77;;;10.20;;
24277;SDS011;12394;42.692;23.314;2024-03-23T05:50:48;24.67;;;12.70;;
24277;SDS011;12394;42.692;23.314;2024-03-23T05:53:15;17.43;;;10.27;;
24277;SDS011;12394;42.692;23.314;2024-03-23T05:55:41;17.97;;;10.43;;
24277;SDS011;12394;42.692;23.314;2024-03-23T05:58:06;17.93;;;10.07;;
24277;SDS011;12394;42.692;23.314;2024-03-23T06:00:32;18.00;;;10.43;;
24277;SDS011;12394;42.692;23.314;2024-03-23T06:02:57;15.17;;;8.87;;
24277;SDS011;12394;42.692;23.314;2024-03-23T06:05:23;18.47;;;10.43;;
24277;SDS011;12394;42.692;23.314;2024-03-23T06:07:49;14.83;;;9.20;;
24277;SDS011;12394;42.692;23.314;2024-03-23T06:10:15;18.63;;;10.13;;
24277;SDS011;12394;42.692;23.314;2024-03-23T06:12:40;22.60;;;11.37;;
24277;SDS011;12394;42.692;23.314;2024-03-23T06:15:06;16.73;;;10.43;;
24277;SDS011;12394;42.692;23.314;2024-03-23T06:17:35;24.10;;;11.47;;
24277;SDS011;12394;42.692;23.314;2024-03-23T06:20:02;23.53;;;10.90;;
24277;SDS011;12394;42.692;23.314;2024-03-23T06:22:27;16.63;;;10.43;;
24277;SDS011;12394;42.692;23.314;2024-03-23T06:24:53;101.43;;;17.03;;
24277;SDS011;12394;42.692;23.314;2024-03-23T06:27:18;18.57;;;11.07;;
24277;SDS011;12394;42.692;23.314;2024-03-23T06:29:44;21.10;;;12.80;;
24277;SDS011;12394;42.692;23.314;2024-03-23T06:32:09;17.80;;;11.90;;
24277;SDS011;12394;42.692;23.314;2024-03-23T06:34:35;20.13;;;12.37;;
24277;SDS011;12394;42.692;23.314;2024-03-23T06:37:00;26.63;;;13.80;;
24277;SDS011;12394;42.692;23.314;2024-03-23T06:39:25;17.60;;;11.47;;
24277;SDS011;12394;42.692;23.314;2024-03-23T06:41:52;18.60;;;11.50;;
24277;SDS011;12394;42.692;23.314;2024-03-23T06:44:18;19.17;;;11.50;;
24277;SDS011;12394;42.692;23.314;2024-03-23T06:46:44;22.50;;;11.43;;
24277;SDS011;12394;42.692;23.314;2024-03-23T06:49:10;17.97;;;11.30;;
24277;SDS011;12394;42.692;23.314;2024-03-23T06:51:37;31.43;;;13.20;;
24277;SDS011;12394;42.692;23.314;2024-03-23T06:54:04;20.90;;;12.70;;
24277;SDS011;12394;42.692;23.314;2024-03-23T06:56:30;19.93;;;11.87;;
24277;SDS011;12394;42.692;23.314;2024-03-23T06:58:56;20.23;;;11.07;;
24277;SDS011;12394;42.692;23.314;2024-03-23T07:01:23;27.50;;;12.43;;
24277;SDS011;12394;42.692;23.314;2024-03-23T07:03:49;19.17;;;11.17;;
24277;SDS011;12394;42.692;23.314;2024-03-23T07:06:15;17.40;;;11.40;;
24277;SDS011;12394;42.692;23.314;2024-03-23T07:08:40;20.00;;;11.83;;
24277;SDS011;12394;42.692;23.314;2024-03-23T07:11:07;18.97;;;11.70;;
24277;SDS011;12394;42.692;23.314;2024-03-23T07:13:32;18.77;;;11.37;;
24277;SDS011;12394;42.692;23.314;2024-03-23T07:15:58;14.67;;;10.33;;
24277;SDS011;12394;42.692;23.314;2024-03-23T07:18:25;17.13;;;10.17;;
24277;SDS011;12394;42.692;23.314;2024-03-23T07:20:53;26.40;;;10.47;;
24277;SDS011;12394;42.692;23.314;2024-03-23T07:23:20;18.63;;;10.20;;
24277;SDS011;12394;42.692;23.314;2024-03-23T07:26:12;18.80;;;10.63;;
24277;SDS011;12394;42.692;23.314;2024-03-23T07:28:38;15.53;;;11.00;;
24277;SDS011;12394;42.692;23.314;2024-03-23T07:31:11;16.00;;;9.63;;
24277;SDS011;12394;42.692;23.314;2024-03-23T07:33:41;19.80;;;10.73;;
24277;SDS011;12394;42.692;23.314;2024-03-23T07:36:11;14.83;;;10.27;;
24277;SDS011;12394;42.692;23.314;2024-03-23T07:38:37;15.33;;;10.60;;
24277;SDS011;12394;42.692;23.314;2024-03-23T07:41:03;21.20;;;10.43;;
24277;SDS011;12394;42.692;23.314;2024-03-23T07:43:28;20.73;;;10.53;;
24277;SDS011;12394;42.692;23.314;2024-03-23T07:45:54;19.40;;;9.70;;
24277;SDS011;12394;42.692;23.314;2024-03-23T07:48:20;21.37;;;10.57;;
24277;SDS011;12394;42.692;23.314;2024-03-23T07:50:55;17.33;;;10.43;;
24277;SDS011;12394;42.692;23.314;2024-03-23T07:53:25;19.83;;;11.03;;
24277;SDS011;12394;42.692;23.314;2024-03-23T07:55:54;18.83;;;10.17;;
24277;SDS011;12394;42.692;23.314;2024-03-23T07:58:21;19.67;;;10.47;;
24277;SDS011;12394;42.692;23.314;2024-03-23T08:00:46;17.53;;;10.50;;
24277;SDS011;12394;42.692;23.314;2024-03-23T08:03:12;22.73;;;11.30;;
24277;SDS011;12394;42.692;23.314;2024-03-23T08:05:37;19.23;;;12.53;;
24277;SDS011;12394;42.692;23.314;2024-03-23T08:08:03;15.07;;;10.60;;
24277;SDS011;12394;42.692;23.314;2024-03-23T08:10:29;18.03;;;11.37;;
24277;SDS011;12394;42.692;23.314;2024-03-23T08:12:54;21.53;;;10.43;;
24277;SDS011;12394;42.692;23.314;2024-03-23T08:15:19;22.97;;;10.33;;
24277;SDS011;12394;42.692;23.314;2024-03-23T08:17:45;15.70;;;10.27;;
24277;SDS011;12394;42.692;23.314;2024-03-23T08:20:10;24.90;;;10.87;;
24277;SDS011;12394;42.692;23.314;2024-03-23T08:22:36;14.27;;;9.90;;
24277;SDS011;12394;42.692;23.314;2024-03-23T08:25:02;15.83;;;10.07;;
24277;SDS011;12394;42.692;23.314;2024-03-23T08:27:27;19.00;;;10.43;;
24277;SDS011;12394;42.692;23.314;2024-03-23T08:29:53;16.47;;;11.07;;
24277;SDS011;12394;42.692;23.314;2024-03-23T08:32:18;25.13;;;11.00;;
24277;SDS011;12394;42.692;23.314;2024-03-23T08:34:43;19.50;;;12.73;;
24277;SDS011;12394;42.692;23.314;2024-03-23T08:37:10;19.33;;;11.13;;
24277;SDS011;12394;42.692;23.314;2024-03-23T08:39:35;17.27;;;12.20;;
24277;SDS011;12394;42.692;23.314;2024-03-23T08:42:01;19.87;;;14.67;;
24277;SDS011;12394;42.692;23.314;2024-03-23T08:44:26;18.90;;;11.37;;
24277;SDS011;12394;42.692;23.314;2024-03-23T08:46:52;18.07;;;12.13;;
24277;SDS011;12394;42.692;23.314;2024-03-23T08:49:21;19.10;;;11.53;;
24277;SDS011;12394;42.692;23.314;2024-03-23T08:51:46;19.53;;;13.33;;
24277;SDS011;12394;42.692;23.314;2024-03-23T08:54:12;20.43;;;12.90;;
24277;SDS011;12394;42.692;23.314;2024-03-23T08:56:37;25.20;;;16.50;;
24277;SDS011;12394;42.692;23.314;2024-03-23T08:59:03;19.27;;;12.53;;
24277;SDS011;12394;42.692;23.314;2024-03-23T09:01:28;23.27;;;15.80;;
24277;SDS011;12394;42.692;23.314;2024-03-23T09:03:54;20.90;;;12.13;;
24277;SDS011;12394;42.692;23.314;2024-03-23T09:06:19;29.00;;;14.53;;
24277;SDS011;12394;42.692;23.314;2024-03-23T09:08:45;19.47;;;12.57;;
24277;SDS011;12394;42.692;23.314;2024-03-23T09:11:11;20.47;;;12.60;;
24277;SDS011;12394;42.692;23.314;2024-03-23T09:13:38;21.90;;;15.87;;
24277;SDS011;12394;42.692;23.314;2024-03-23T09:16:05;22.70;;;13.17;;
24277;SDS011;12394;42.692;23.314;2024-03-23T09:18:32;19.30;;;13.00;;
24277;SDS011;12394;42.692;23.314;2024-03-23T09:20:58;17.10;;;12.97;;
24277;SDS011;12394;42.692;23.314;2024-03-23T09:23:24;20.80;;;13.77;;
24277;SDS011;12394;42.692;23.314;2024-03-23T09:25:51;22.63;;;13.00;;
24277;SDS011;12394;42.692;23.314;2024-03-23T09:28:16;26.97;;;14.70;;
24277;SDS011;12394;42.692;23.314;2024-03-23T09:30:42;19.47;;;12.57;;
24277;SDS011;12394;42.692;23.314;2024-03-23T09:33:08;18.03;;;12.20;;
24277;SDS011;12394;42.692;23.314;2024-03-23T09:35:37;15.70;;;12.33;;
24277;SDS011;12394;42.692;23.314;2024-03-23T09:38:03;20.90;;;12.03;;
24277;SDS011;12394;42.692;23.314;2024-03-23T09:40:29;19.43;;;12.03;;
24277;SDS011;12394;42.692;23.314;2024-03-23T09:42:55;15.97;;;11.17;;
24277;SDS011;12394;42.692;23.314;2024-03-23T09:45:27;16.00;;;12.27;;
24277;SDS011;12394;42.692;23.314;2024-03-23T09:47:57;17.13;;;12.40;;
24277;SDS011;12394;42.692;23.314;2024-03-23T09:50:22;18.67;;;12.77;;
24277;SDS011;12394;42.692;23.314;2024-03-23T09:52:48;16.67;;;10.27;;
24277;SDS011;12394;42.692;23.314;2024-03-23T09:55:14;14.13;;;11.27;;
24277;SDS011;12394;42.692;23.314;2024-03-23T09:57:40;15.00;;;10.40;;
24277;SDS011;12394;42.692;23.314;2024-03-23T10:00:07;18.50;;;11.17;;
24277;SDS011;12394;42.692;23.314;2024-03-23T10:02:34;22.37;;;10.93;;
24277;SDS011;12394;42.692;23.314;2024-03-23T10:05:00;21.27;;;10.13;;
24277;SDS011;12394;42.692;23.314;2024-03-23T10:07:25;18.87;;;10.53;;
24277;SDS011;12394;42.692;23.314;2024-03-23T10:09:53;17.50;;;10.33;;
24277;SDS011;12394;42.692;23.314;2024-03-23T10:12:19;17.90;;;10.77;;
24277;SDS011;12394;42.692;23.314;2024-03-23T10:14:48;17.53;;;11.20;;
24277;SDS011;12394;42.692;23.314;2024-03-23T10:17:18;20.47;;;12.50;;
24277;SDS011;12394;42.692;23.314;2024-03-23T10:19:45;14.17;;;9.87;;
24277;SDS011;12394;42.692;23.314;2024-03-23T10:22:13;14.70;;;10.60;;
24277;SDS011;12394;42.692;23.314;2024-03-23T10:24:41;14.47;;;10.73;;
24277;SDS011;12394;42.692;23.314;2024-03-23T10:27:07;12.43;;;10.80;;
24277;SDS011;12394;42.692;23.314;2024-03-23T10:29:32;12.87;;;9.93;;
24277;SDS011;12394;42.692;23.314;2024-03-23T10:32:08;14.97;;;9.70;;
24277;SDS011;12394;42.692;23.314;2024-03-23T10:34:36;10.43;;;9.20;;
24277;SDS011;12394;42.692;23.314;2024-03-23T10:37:32;14.20;;;10.07;;
24277;SDS011;12394;42.692;23.314;2024-03-23T10:39:58;16.80;;;10.00;;
24277;SDS011;12394;42.692;23.314;2024-03-23T10:42:25;13.43;;;10.10;;
24277;SDS011;12394;42.692;23.314;2024-03-23T10:44:51;16.27;;;8.97;;
24277;SDS011;12394;42.692;23.314;2024-03-23T10:47:22;10.60;;;9.23;;
24277;SDS011;12394;42.692;23.314;2024-03-23T10:49:48;14.73;;;9.50;;
24277;SDS011;12394;42.692;23.314;2024-03-23T10:52:14;11.30;;;8.87;;
24277;SDS011;12394;42.692;23.314;2024-03-23T10:54:39;24.07;;;11.00;;
24277;SDS011;12394;42.692;23.314;2024-03-23T10:57:08;14.83;;;9.97;;
24277;SDS011;12394;42.692;23.314;2024-03-23T10:59:36;19.83;;;8.80;;
24277;SDS011;12394;42.692;23.314;2024-03-23T11:02:03;15.20;;;9.73;;
24277;SDS011;12394;42.692;23.314;2024-03-23T11:04:30;15.20;;;8.83;;
24277;SDS011;12394;42.692;23.314;2024-03-23T11:06:56;18.13;;;11.00;;
24277;SDS011;12394;42.692;23.314;2024-03-23T11:12:16;18.30;;;10.17;;
24277;SDS011;12394;42.692;23.314;2024-03-23T11:14:48;17.30;;;11.13;;
24277;SDS011;12394;42.692;23.314;2024-03-23T11:17:19;12.73;;;9.33;;
24277;SDS011;12394;42.692;23.314;2024-03-23T11:20:01;20.87;;;14.13;;
24277;SDS011;12394;42.692;23.314;2024-03-23T11:25:02;15.07;;;9.00;;
24277;SDS011;12394;42.692;23.314;2024-03-23T11:27:51;10.83;;;8.70;;
24277;SDS011;12394;42.692;23.314;2024-03-23T11:30:23;14.53;;;8.47;;
24277;SDS011;12394;42.692;23.314;2024-03-23T11:32:57;13.50;;;8.03;;
24277;SDS011;12394;42.692;23.314;2024-03-23T11:40:32;16.53;;;8.07;;
24277;SDS011;12394;42.692;23.314;2024-03-23T11:42:59;9.97;;;8.17;;
24277;SDS011;12394;42.692;23.314;2024-03-23T11:45:26;19.10;;;8.93;;
24277;SDS011;12394;42.692;23.314;2024-03-23T11:48:04;12.03;;;7.30;;
24277;SDS011;12394;42.692;23.314;2024-03-23T11:50:29;10.20;;;7.37;;
24277;SDS011;12394;42.692;23.314;2024-03-23T11:53:08;18.17;;;7.23;;
24277;SDS011;12394;42.692;23.314;2024-03-23T11:58:11;17.60;;;8.53;;
24277;SDS011;12394;42.692;23.314;2024-03-23T12:00:37;9.87;;;5.00;;
24277;SDS011;12394;42.692;23.314;2024-03-23T12:03:03;10.37;;;5.43;;
24277;SDS011;12394;42.692;23.314;2024-03-23T12:05:29;12.43;;;5.67;;
24277;SDS011;12394;42.692;23.314;2024-03-23T12:07:55;9.30;;;5.33;;
24277;SDS011;12394;42.692;23.314;2024-03-23T12:10:21;8.67;;;5.83;;
24277;SDS011;12394;42.692;23.314;2024-03-23T12:12:58;10.00;;;4.93;;
24277;SDS011;12394;42.692;23.314;2024-03-23T12:15:26;21.20;;;7.07;;
24277;SDS011;12394;42.692;23.314;2024-03-23T12:17:52;7.20;;;5.27;;
24277;SDS011;12394;42.692;23.314;2024-03-23T12:20:31;7.17;;;4.87;;
24277;SDS011;12394;42.692;23.314;2024-03-23T12:23:12;7.20;;;5.67;;
24277;SDS011;12394;42.692;23.314;2024-03-23T12:25:38;11.07;;;6.40;;
24277;SDS011;12394;42.692;23.314;2024-03-23T12:28:04;6.63;;;3.40;;
24277;SDS011;12394;42.692;23.314;2024-03-23T12:30:38;10.07;;;3.63;;
24277;SDS011;12394;42.692;23.314;2024-03-23T12:33:05;7.50;;;3.50;;
24277;SDS011;12394;42.692;23.314;2024-03-23T12:35:31;3.13;;;2.20;;
24277;SDS011;12394;42.692;23.314;2024-03-23T12:37:57;3.20;;;2.03;;
24277;SDS011;12394;42.692;23.314;2024-03-23T12:40:22;8.90;;;4.57;;
24277;SDS011;12394;42.692;23.314;2024-03-23T12:42:48;10.23;;;6.23;;
24277;SDS011;12394;42.692;23.314;2024-03-23T12:45:13;7.83;;;4.27;;
24277;SDS011;12394;42.692;23.314;2024-03-23T12:47:39;8.63;;;4.80;;
24277;SDS011;12394;42.692;23.314;2024-03-23T12:50:05;7.77;;;4.23;;
24277;SDS011;12394;42.692;23.314;2024-03-23T12:52:31;9.93;;;5.47;;
24277;SDS011;12394;42.692;23.314;2024-03-23T12:54:57;3.33;;;2.50;;
24277;SDS011;12394;42.692;23.314;2024-03-23T12:57:25;6.43;;;4.00;;
24277;SDS011;12394;42.692;23.314;2024-03-23T12:59:53;12.97;;;8.93;;
24277;SDS011;12394;42.692;23.314;2024-03-23T13:02:20;18.00;;;8.93;;
24277;SDS011;12394;42.692;23.314;2024-03-23T13:04:50;4.80;;;2.37;;
24277;SDS011;12394;42.692;23.314;2024-03-23T13:07:17;5.87;;;3.27;;
24277;SDS011;12394;42.692;23.314;2024-03-23T13:09:44;3.07;;;2.43;;
24277;SDS011;12394;42.692;23.314;2024-03-23T13:12:09;3.20;;;2.17;;
24277;SDS011;12394;42.692;23.314;2024-03-23T13:14:37;17.60;;;10.57;;
24277;SDS011;12394;42.692;23.314;2024-03-23T13:17:03;19.23;;;12.83;;
24277;SDS011;12394;42.692;23.314;2024-03-23T13:19:29;9.07;;;3.60;;
24277;SDS011;12394;42.692;23.314;2024-03-23T13:21:58;20.30;;;12.90;;
24277;SDS011;12394;42.692;23.314;2024-03-23T13:24:25;6.70;;;2.77;;
24277;SDS011;12394;42.692;23.314;2024-03-23T13:26:51;4.53;;;3.20;;
24277;SDS011;12394;42.692;23.314;2024-03-23T13:29:18;5.00;;;4.00;;
24277;SDS011;12394;42.692;23.314;2024-03-23T13:31:44;5.20;;;3.40;;
24277;SDS011;12394;42.692;23.314;2024-03-23T13:34:10;8.37;;;4.80;;
24277;SDS011;12394;42.692;23.314;2024-03-23T13:36:39;6.20;;;3.67;;
24277;SDS011;12394;42.692;23.314;2024-03-23T13:39:07;18.80;;;7.30;;
24277;SDS011;12394;42.692;23.314;2024-03-23T13:41:58;5.83;;;3.37;;
24277;SDS011;12394;42.692;23.314;2024-03-23T13:44:24;1.77;;;1.43;;
24277;SDS011;12394;42.692;23.314;2024-03-23T13:46:49;4.37;;;2.57;;
24277;SDS011;12394;42.692;23.314;2024-03-23T13:49:25;3.37;;;2.90;;
24277;SDS011;12394;42.692;23.314;2024-03-23T13:51:52;3.03;;;2.17;;
24277;SDS011;12394;42.692;23.314;2024-03-23T13:54:18;20.67;;;11.47;;
24277;SDS011;12394;42.692;23.314;2024-03-23T13:56:44;11.17;;;5.73;;
24277;SDS011;12394;42.692;23.314;2024-03-23T13:59:11;9.10;;;4.83;;
24277;SDS011;12394;42.692;23.314;2024-03-23T14:01:37;9.33;;;5.70;;
24277;SDS011;12394;42.692;23.314;2024-03-23T14:04:02;7.50;;;4.97;;
24277;SDS011;12394;42.692;23.314;2024-03-23T14:06:28;6.00;;;3.43;;
24277;SDS011;12394;42.692;23.314;2024-03-23T14:08:59;2.47;;;2.23;;
24277;SDS011;12394;42.692;23.314;2024-03-23T14:11:30;5.57;;;3.40;;
24277;SDS011;12394;42.692;23.314;2024-03-23T14:13:56;6.33;;;3.97;;
24277;SDS011;12394;42.692;23.314;2024-03-23T14:16:21;4.47;;;1.93;;
24277;SDS011;12394;42.692;23.314;2024-03-23T14:18:48;3.33;;;2.20;;
24277;SDS011;12394;42.692;23.314;2024-03-23T14:21:15;8.97;;;2.33;;
24277;SDS011;12394;42.692;23.314;2024-03-23T14:23:40;4.13;;;3.10;;
24277;SDS011;12394;42.692;23.314;2024-03-23T14:26:06;12.17;;;6.50;;
24277;SDS011;12394;42.692;23.314;2024-03-23T14:28:33;13.10;;;7.37;;
24277;SDS011;12394;42.692;23.314;2024-03-23T14:30:59;20.83;;;13.47;;
24277;SDS011;12394;42.692;23.314;2024-03-23T14:33:24;19.73;;;10.63;;
24277;SDS011;12394;42.692;23.314;2024-03-23T14:35:53;7.80;;;2.83;;
24277;SDS011;12394;42.692;23.314;2024-03-23T14:38:39;13.63;;;9.30;;
24277;SDS011;12394;42.692;23.314;2024-03-23T14:41:05;3.23;;;2.20;;
24277;SDS011;12394;42.692;23.314;2024-03-23T14:43:32;23.40;;;14.87;;
24277;SDS011;12394;42.692;23.314;2024-03-23T14:46:13;7.83;;;2.90;;
24277;SDS011;12394;42.692;23.314;2024-03-23T14:48:40;9.47;;;3.37;;
24277;SDS011;12394;42.692;23.314;2024-03-23T14:51:06;8.43;;;3.90;;
24277;SDS011;12394;42.692;23.314;2024-03-23T14:53:36;6.73;;;2.70;;
24277;SDS011;12394;42.692;23.314;2024-03-23T14:56:03;19.27;;;12.17;;
24277;SDS011;12394;42.692;23.314;2024-03-23T14:58:29;8.97;;;5.40;;
24277;SDS011;12394;42.692;23.314;2024-03-23T15:03:48;5.90;;;3.30;;
24277;SDS011;12394;42.692;23.314;2024-03-23T15:06:17;7.63;;;3.77;;
24277;SDS011;12394;42.692;23.314;2024-03-23T15:08:42;3.80;;;2.60;;
24277;SDS011;12394;42.692;23.314;2024-03-23T15:11:08;4.63;;;2.73;;
24277;SDS011;12394;42.692;23.314;2024-03-23T15:13:34;4.30;;;3.07;;
24277;SDS011;12394;42.692;23.314;2024-03-23T15:16:06;13.20;;;4.70;;
24277;SDS011;12394;42.692;23.314;2024-03-23T15:18:32;7.53;;;3.07;;
24277;SDS011;12394;42.692;23.314;2024-03-23T15:20:59;5.43;;;3.70;;
24277;SDS011;12394;42.692;23.314;2024-03-23T15:23:52;8.77;;;3.63;;
24277;SDS011;12394;42.692;23.314;2024-03-23T15:26:19;5.60;;;3.50;;